Time;durP1;ratioP1;P1;durP2;ratioP2;P2;SDS_P1;SDS_P2;PMS_P1;PMS_P2;Temp;Humidity;BMP_temperature;BMP_pressure;BME280_temperature;BME280_humidity;BME280_pressure;Samples;Min_cycle;Max_cycle;Signal;HPM_P1;HPM_P2
2024/03/27 00:01:40;;;;;;;;;;;;;;;9.44;46.43;94908.44;108708;1272;25374;-83
2024/03/27 00:04:06;;;;;;;;;;;;;;;9.45;45.75;94899.64;108722;1280;22471;-83
2024/03/27 00:06:33;;;;;;;;;;;;;;;9.46;46.71;94902.94;108596;1274;123922;-83
2024/03/27 00:08:59;;;;;;;;;;;;;;;9.45;46.76;94900.98;108679;1275;22571;-83
2024/03/27 00:11:27;;;;;;;;;;;;;;;9.43;46.55;94901.27;108569;1273;124010;-85
2024/03/27 00:13:54;;;;;;;;;;;;;;;9.42;46.64;94901.22;108648;1280;22613;-85
2024/03/27 00:16:20;;;;;;;;;;;;;;;9.43;45.91;94902.50;108592;1280;24890;-86
2024/03/27 00:18:46;;;;;;;;;;;;;;;9.44;46.37;94883.84;108558;1280;123867;-85
2024/03/27 00:21:13;;;;;;;;;;;;;;;9.44;46.81;94886.43;108662;1280;22619;-85
2024/03/27 00:23:39;;;;;;;;;;;;;;;9.43;47.29;94875.34;108528;1275;124091;-85
2024/03/27 00:26:06;;;;;;;;;;;;;;;9.41;46.74;94860.71;108632;1280;24195;-85
2024/03/27 00:28:33;;;;;;;;;;;;;;;9.43;47.10;94847.84;108636;1275;24225;-83
2024/03/27 00:30:59;;;;;;;;;;;;;;;9.42;47.70;94848.34;108536;1280;124454;-83
2024/03/27 00:33:26;;;;;;;;;;;;;;;9.41;47.51;94836.42;108676;1277;23805;-83
2024/03/27 00:35:53;;;;;;;;;;;;;;;9.39;47.78;94837.27;108580;1279;124288;-87
2024/03/27 00:38:20;;;;;;;;;;;;;;;9.42;47.42;94840.91;108683;1275;22559;-86
2024/03/27 00:40:47;;;;;;;;;;;;;;;9.42;47.38;94829.95;108636;1277;22478;-87
2024/03/27 00:43:13;;;;;;;;;;;;;;;9.45;47.33;94812.48;108543;1280;123951;-86
2024/03/27 00:45:40;;;;;;;;;;;;;;;9.47;47.66;94812.58;108696;1273;25249;-86
2024/03/27 00:48:06;;;;;;;;;;;;;;;9.47;48.53;94801.96;108570;1279;123911;-86
2024/03/27 00:50:33;;;;;;;;;;;;;;;9.44;48.28;94787.72;108689;1279;22595;-87
2024/03/27 00:52:59;;;;;;;;;;;;;;;9.41;48.06;94794.55;108713;1267;23688;-87
2024/03/27 00:55:26;;;;;;;;;;;;;;;9.39;47.74;94788.30;108658;1280;123738;-87
2024/03/27 00:57:52;;;;;;;;;;;;;;;9.42;47.97;94764.70;108712;1276;25253;-87
2024/03/27 01:00:19;;;;;;;;;;;;;;;9.40;48.44;94765.73;108640;1279;123905;-86
2024/03/27 01:02:45;;;;;;;;;;;;;;;9.36;48.59;94743.48;108629;1279;24203;-87
2024/03/27 01:05:12;;;;;;;;;;;;;;;9.36;48.26;94734.51;108619;1272;124078;-87
2024/03/27 01:07:38;;;;;;;;;;;;;;;9.36;48.52;94723.58;108670;1280;24225;-87
2024/03/27 01:10:05;;;;;;;;;;;;;;;9.35;48.73;94730.29;108638;1275;22659;-87
2024/03/27 01:12:32;;;;;;;;;;;;;;;9.36;48.42;94731.98;108541;1275;124401;-87
2024/03/27 01:14:58;;;;;;;;;;;;;;;9.37;48.50;94721.38;108664;1270;22981;-87
2024/03/27 01:17:24;;;;;;;;;;;;;;;9.38;47.91;94713.42;108546;1275;124060;-87
2024/03/27 01:19:51;;;;;;;;;;;;;;;9.41;47.80;94725.86;108689;1273;22526;-86
2024/03/27 01:22:17;;;;;;;;;;;;;;;9.45;47.31;94708.15;108575;1279;25193;-87
2024/03/27 01:24:43;;;;;;;;;;;;;;;9.51;47.11;94692.35;108549;1269;124310;-86
2024/03/27 01:27:10;;;;;;;;;;;;;;;9.54;47.08;94681.43;108658;1280;22546;-87
2024/03/27 01:29:36;;;;;;;;;;;;;;;9.56;47.38;94678.58;108493;1280;124360;-87
2024/03/27 01:32:02;;;;;;;;;;;;;;;9.55;46.82;94686.05;108597;1280;22468;-87
2024/03/27 01:34:29;;;;;;;;;;;;;;;9.59;47.20;94686.15;108658;1275;22492;-86
2024/03/27 01:36:55;;;;;;;;;;;;;;;9.59;46.99;94684.91;108577;1280;124716;-87
2024/03/27 01:39:22;;;;;;;;;;;;;;;9.61;47.29;94692.61;108640;1280;24162;-86
2024/03/27 01:41:48;;;;;;;;;;;;;;;9.60;47.36;94691.42;108569;1280;124275;-86
2024/03/27 01:44:18;;;;;;;;;;;;;;;9.58;47.17;94696.44;108684;1274;22507;-87
2024/03/27 01:46:45;;;;;;;;;;;;;;;9.57;46.92;94703.36;108685;1280;22539;-86
2024/03/27 01:49:12;;;;;;;;;;;;;;;9.58;47.61;94695.34;108629;1280;124009;-86
2024/03/27 01:51:38;;;;;;;;;;;;;;;9.56;47.15;94689.54;108671;1274;22508;-87
2024/03/27 01:54:04;;;;;;;;;;;;;;;9.53;47.81;94673.86;108578;1280;124059;-87
2024/03/27 01:56:32;;;;;;;;;;;;;;;9.51;47.07;94666.79;108636;1280;22698;-86
2024/03/27 01:58:59;;;;;;;;;;;;;;;9.52;47.62;94640.68;108659;1280;22575;-86
2024/03/27 02:01:26;;;;;;;;;;;;;;;9.49;47.57;94637.42;108576;1280;123842;-87
2024/03/27 02:03:52;;;;;;;;;;;;;;;9.47;47.44;94636.40;108661;1275;22512;-86
2024/03/27 02:06:18;;;;;;;;;;;;;;;9.49;47.62;94620.78;108536;1280;124310;-87
2024/03/27 02:08:45;;;;;;;;;;;;;;;9.48;47.28;94605.52;108615;1275;22549;-86
2024/03/27 02:11:11;;;;;;;;;;;;;;;9.50;47.08;94602.14;108538;1270;124053;-86
2024/03/27 02:13:37;;;;;;;;;;;;;;;9.52;47.00;94599.36;108609;1275;22652;-87
2024/03/27 02:16:04;;;;;;;;;;;;;;;9.55;46.35;94588.95;108708;1279;22482;-86
2024/03/27 02:18:30;;;;;;;;;;;;;;;9.58;46.59;94592.92;108571;1280;124502;-86
2024/03/27 02:20:56;;;;;;;;;;;;;;;9.61;46.18;94603.57;108702;1273;24946;-86
2024/03/27 02:23:23;;;;;;;;;;;;;;;9.63;46.53;94592.92;108573;1280;124192;-87
2024/03/27 02:25:51;;;;;;;;;;;;;;;9.62;46.34;94591.39;108664;1278;22507;-83
2024/03/27 02:28:18;;;;;;;;;;;;;;;9.62;46.83;94601.61;108662;1280;23121;-83
2024/03/27 02:30:44;;;;;;;;;;;;;;;9.61;46.01;94599.61;108623;1279;124268;-84
2024/03/27 02:33:11;;;;;;;;;;;;;;;9.63;46.04;94597.52;108683;1279;22514;-83
2024/03/27 02:35:37;;;;;;;;;;;;;;;9.62;46.47;94588.17;108552;1280;124568;-83
2024/03/27 02:38:04;;;;;;;;;;;;;;;9.59;46.37;94581.32;108689;1272;22531;-83
2024/03/27 02:40:30;;;;;;;;;;;;;;;9.58;46.11;94578.14;108677;1267;22547;-83
2024/03/27 02:42:56;;;;;;;;;;;;;;;9.57;45.96;94563.30;108688;1279;124009;-82
2024/03/27 02:45:23;;;;;;;;;;;;;;;9.60;46.64;94558.46;108726;1279;23227;-83
2024/03/27 02:47:49;;;;;;;;;;;;;;;9.58;45.93;94550.48;108539;1280;124259;-82
2024/03/27 02:50:15;;;;;;;;;;;;;;;9.59;46.15;94561.58;108697;1280;24144;-83
2024/03/27 02:52:42;;;;;;;;;;;;;;;9.60;46.20;94542.55;108602;1278;22575;-82
2024/03/27 02:55:08;;;;;;;;;;;;;;;9.62;45.49;94547.20;108518;1273;124053;-82
2024/03/27 02:57:34;;;;;;;;;;;;;;;9.67;45.44;94529.73;108688;1275;22994;-83
2024/03/27 03:00:01;;;;;;;;;;;;;;;9.68;46.02;94532.45;108554;1275;124683;-83
2024/03/27 03:02:27;;;;;;;;;;;;;;;9.67;45.53;94523.45;108666;1278;22493;-83
2024/03/27 03:04:53;;;;;;;;;;;;;;;9.73;45.73;94512.19;108610;1280;22466;-82
2024/03/27 03:07:20;;;;;;;;;;;;;;;9.78;45.44;94529.50;108600;1278;124100;-83
2024/03/27 03:09:46;;;;;;;;;;;;;;;9.81;45.42;94531.33;108611;1280;22585;-83
2024/03/27 03:12:13;;;;;;;;;;;;;;;9.83;45.82;94523.95;108615;1280;124128;-83
2024/03/27 03:14:39;;;;;;;;;;;;;;;9.82;46.04;94519.02;108707;1276;25464;-83
2024/03/27 03:17:06;;;;;;;;;;;;;;;9.83;46.20;94529.41;108552;1275;124304;-84
2024/03/27 03:19:34;;;;;;;;;;;;;;;9.83;45.73;94530.56;108661;1275;25403;-83
2024/03/27 03:22:01;;;;;;;;;;;;;;;9.82;46.40;94526.08;108679;1274;22561;-83
2024/03/27 03:24:27;;;;;;;;;;;;;;;9.82;46.34;94522.96;108535;1280;124163;-83
2024/03/27 03:26:53;;;;;;;;;;;;;;;9.84;46.40;94544.00;108598;1280;22578;-83
2024/03/27 03:29:20;;;;;;;;;;;;;;;9.86;46.39;94514.27;108604;1275;124257;-83
2024/03/27 03:31:47;;;;;;;;;;;;;;;9.87;46.55;94511.19;108651;1273;25380;-83
2024/03/27 03:34:14;;;;;;;;;;;;;;;9.87;46.81;94516.48;108760;1280;22471;-83
2024/03/27 03:36:40;;;;;;;;;;;;;;;9.88;46.82;94524.02;108624;1273;124122;-83
2024/03/27 03:39:07;;;;;;;;;;;;;;;9.88;46.91;94516.31;108619;1273;22512;-83
2024/03/27 03:41:33;;;;;;;;;;;;;;;9.89;46.91;94518.56;108576;1268;124276;-83
2024/03/27 03:44:00;;;;;;;;;;;;;;;9.90;47.00;94523.15;108582;1280;22546;-83
2024/03/27 03:46:26;;;;;;;;;;;;;;;9.93;47.60;94534.34;108669;1276;22743;-83
2024/03/27 03:48:52;;;;;;;;;;;;;;;9.94;47.40;94535.05;108560;1273;124071;-83
2024/03/27 03:51:19;;;;;;;;;;;;;;;9.95;47.88;94533.55;108694;1276;22519;-83
2024/03/27 03:53:45;;;;;;;;;;;;;;;9.98;47.98;94530.45;108574;1275;124285;-83
2024/03/27 03:56:11;;;;;;;;;;;;;;;9.98;48.70;94537.35;108722;1273;22510;-83
2024/03/27 03:58:38;;;;;;;;;;;;;;;9.97;48.58;94546.98;108692;1280;24149;-83
2024/03/27 04:01:06;;;;;;;;;;;;;;;9.98;49.46;94547.27;108643;1272;124088;-83
2024/03/27 04:03:33;;;;;;;;;;;;;;;10.00;49.32;94530.45;108692;1276;22501;-83
2024/03/27 04:05:59;;;;;;;;;;;;;;;10.04;50.20;94532.29;108601;1279;124324;-85
2024/03/27 04:08:26;;;;;;;;;;;;;;;10.03;50.24;94541.52;108696;1272;22477;-85
2024/03/27 04:10:52;;;;;;;;;;;;;;;10.03;50.82;94539.85;108679;1273;22457;-85
2024/03/27 04:13:18;;;;;;;;;;;;;;;10.01;51.05;94538.92;108564;1280;124119;-85
2024/03/27 04:15:45;;;;;;;;;;;;;;;9.99;51.08;94524.35;108618;1275;22470;-86
2024/03/27 04:18:11;;;;;;;;;;;;;;;9.99;51.48;94533.89;108532;1275;124543;-86
2024/03/27 04:20:40;;;;;;;;;;;;;;;9.98;51.69;94535.02;108694;1280;23104;-85
2024/03/27 04:23:07;;;;;;;;;;;;;;;9.97;52.24;94547.77;108524;1275;124172;-86
2024/03/27 04:25:33;;;;;;;;;;;;;;;9.96;52.65;94556.34;108604;1280;22460;-85
2024/03/27 04:28:00;;;;;;;;;;;;;;;10.00;53.39;94524.89;108637;1275;24217;-85
2024/03/27 04:30:27;;;;;;;;;;;;;;;10.02;53.99;94529.82;108517;1280;124227;-86
2024/03/27 04:32:54;;;;;;;;;;;;;;;9.99;54.52;94537.85;108634;1270;23590;-85
2024/03/27 04:35:20;;;;;;;;;;;;;;;9.96;54.65;94539.96;108465;1280;124656;-85
2024/03/27 04:37:47;;;;;;;;;;;;;;;9.98;54.83;94557.06;108590;1280;24309;-85
2024/03/27 04:40:13;;;;;;;;;;;;;;;10.00;55.37;94554.84;108665;1271;22545;-85
2024/03/27 04:42:40;;;;;;;;;;;;;;;10.01;55.87;94544.07;108547;1280;124164;-85
2024/03/27 04:45:07;;;;;;;;;;;;;;;10.01;56.07;94544.12;108761;1274;22532;-85
2024/03/27 04:47:33;;;;;;;;;;;;;;;10.00;56.40;94546.33;108684;1280;124391;-86
2024/03/27 04:50:00;;;;;;;;;;;;;;;9.99;56.47;94549.47;108625;1275;22910;-85
2024/03/27 04:52:26;;;;;;;;;;;;;;;9.98;56.73;94552.30;108646;1275;22564;-85
2024/03/27 04:54:52;;;;;;;;;;;;;;;10.00;57.00;94548.09;108564;1274;124064;-85
2024/03/27 04:57:19;;;;;;;;;;;;;;;10.01;57.20;94568.14;108658;1280;22444;-85
2024/03/27 04:59:45;;;;;;;;;;;;;;;10.02;57.45;94540.20;108573;1275;124540;-85
2024/03/27 05:02:11;;;;;;;;;;;;;;;10.03;57.91;94544.12;108816;1278;22489;-82
2024/03/27 05:04:38;;;;;;;;;;;;;;;10.03;57.94;94543.45;108734;1279;22905;-82
2024/03/27 05:07:04;;;;;;;;;;;;;;;10.05;58.61;94547.20;108638;1280;124218;-83
2024/03/27 05:09:30;;;;;;;;;;;;;;;10.06;59.26;94565.30;108693;1280;22497;-83
2024/03/27 05:11:58;;;;;;;;;;;;;;;10.09;59.74;94572.83;108532;1280;124773;-82
2024/03/27 05:14:24;;;;;;;;;;;;;;;10.13;59.96;94562.47;108619;1279;24203;-83
2024/03/27 05:16:50;;;;;;;;;;;;;;;10.14;60.18;94584.52;108638;1279;22517;-83
2024/03/27 05:19:17;;;;;;;;;;;;;;;10.16;60.41;94578.50;108627;1276;124447;-83
2024/03/27 05:21:44;;;;;;;;;;;;;;;10.17;60.50;94567.02;108814;1279;22547;-83
2024/03/27 05:24:10;;;;;;;;;;;;;;;10.17;60.55;94573.73;108543;1280;124737;-83
2024/03/27 05:26:36;;;;;;;;;;;;;;;10.16;60.79;94576.52;108730;1276;22547;-84
2024/03/27 05:29:04;;;;;;;;;;;;;;;10.16;61.12;94568.92;108691;1273;24211;-83
2024/03/27 05:31:30;;;;;;;;;;;;;;;10.17;61.17;94580.57;108741;1275;22516;-83
2024/03/27 05:33:57;;;;;;;;;;;;;;;10.17;61.62;94566.42;108730;1275;22471;-83
2024/03/27 05:36:23;;;;;;;;;;;;;;;10.19;61.98;94580.45;108622;1276;124415;-83
2024/03/27 05:38:50;;;;;;;;;;;;;;;10.20;61.93;94561.88;108739;1275;22555;-83
2024/03/27 05:41:16;;;;;;;;;;;;;;;10.21;62.13;94583.07;108640;1280;125195;-83
2024/03/27 05:43:42;;;;;;;;;;;;;;;10.21;62.76;94565.48;108672;1262;22512;-83
2024/03/27 05:46:09;;;;;;;;;;;;;;;10.20;62.93;94570.21;108706;1280;22663;-83
2024/03/27 05:48:35;;;;;;;;;;;;;;;10.20;62.96;94572.38;108581;1275;124445;-83
2024/03/27 05:51:01;;;;;;;;;;;;;;;10.21;63.03;94557.08;108654;1280;22546;-83
2024/03/27 05:53:27;;;;;;;;;;;;;;;10.24;63.06;94560.80;108494;1281;124794;-83
2024/03/27 05:55:55;;;;;;;;;;;;;;;10.26;63.26;94556.59;108653;1275;22661;-82
2024/03/27 05:58:21;;;;;;;;;;;;;;;10.28;63.30;94562.14;108628;1275;22534;-83
2024/03/27 06:00:47;;;;;;;;;;;;;;;10.29;63.68;94560.61;108566;1280;124475;-83
2024/03/27 06:03:14;;;;;;;;;;;;;;;10.30;64.09;94560.92;108604;1280;22507;-83
2024/03/27 06:05:43;;;;;;;;;;;;;;;10.31;64.57;94560.02;108625;1280;124842;-83
2024/03/27 06:08:09;;;;;;;;;;;;;;;10.31;64.28;94564.54;108655;1271;22500;-83
2024/03/27 06:10:35;;;;;;;;;;;;;;;10.33;64.78;94556.07;108616;1280;22559;-85
2024/03/27 06:13:04;;;;;;;;;;;;;;;10.32;64.71;94565.39;108527;1275;124280;-85
2024/03/27 06:15:30;;;;;;;;;;;;;;;10.32;64.86;94558.91;108611;1275;22510;-86
2024/03/27 06:17:57;;;;;;;;;;;;;;;10.35;64.71;94573.97;108703;1269;124980;-85
2024/03/27 06:20:24;;;;;;;;;;;;;;;10.37;65.07;94566.98;108591;1281;22560;-86
2024/03/27 06:22:50;;;;;;;;;;;;;;;10.41;65.17;94563.21;108595;1275;23247;-86
2024/03/27 06:25:17;;;;;;;;;;;;;;;10.43;65.72;94554.13;108593;1273;124193;-85
2024/03/27 06:27:44;;;;;;;;;;;;;;;10.43;65.97;94566.34;108648;1274;22585;-85
2024/03/27 06:30:12;;;;;;;;;;;;;;;10.44;66.06;94581.67;108544;1272;124229;-85
2024/03/27 06:32:39;;;;;;;;;;;;;;;10.47;66.26;94577.02;108596;1278;22719;-85
2024/03/27 06:35:06;;;;;;;;;;;;;;;10.50;66.33;94586.08;108543;1272;124319;-85
2024/03/27 06:37:32;;;;;;;;;;;;;;;10.54;66.40;94586.88;108600;1280;22460;-85
2024/03/27 06:39:59;;;;;;;;;;;;;;;10.57;66.80;94586.11;108626;1280;25244;-86
2024/03/27 06:42:25;;;;;;;;;;;;;;;10.59;67.07;94587.59;108500;1280;124345;-86
2024/03/27 06:44:52;;;;;;;;;;;;;;;10.61;67.13;94587.35;108627;1278;25196;-85
2024/03/27 06:47:19;;;;;;;;;;;;;;;10.64;66.96;94574.39;108559;1278;124507;-86
2024/03/27 06:49:46;;;;;;;;;;;;;;;10.67;67.17;94573.41;108770;1280;24216;-85
2024/03/27 06:52:12;;;;;;;;;;;;;;;10.70;67.14;94560.65;108836;1279;22536;-85
2024/03/27 06:54:38;;;;;;;;;;;;;;;10.73;67.42;94558.12;108547;1280;124499;-85
2024/03/27 06:57:05;;;;;;;;;;;;;;;10.77;67.25;94550.54;108755;1280;26096;-86
2024/03/27 06:59:31;;;;;;;;;;;;;;;10.80;67.40;94556.15;108556;1280;124529;-85
2024/03/27 07:01:58;;;;;;;;;;;;;;;10.83;67.35;94559.53;108640;1280;23607;-85
2024/03/27 07:04:25;;;;;;;;;;;;;;;10.85;67.55;94550.46;108612;1269;22576;-85
2024/03/27 07:06:51;;;;;;;;;;;;;;;10.88;67.84;94551.58;108563;1280;124479;-85
2024/03/27 07:09:19;;;;;;;;;;;;;;;10.91;67.78;94569.38;108770;1280;25358;-86
2024/03/27 07:11:45;;;;;;;;;;;;;;;10.94;68.26;94557.48;108689;1273;124986;-87
2024/03/27 07:14:12;;;;;;;;;;;;;;;10.95;68.25;94549.61;108585;1275;23324;-87
2024/03/27 07:16:38;;;;;;;;;;;;;;;10.97;67.98;94560.77;108701;1280;23195;-86
2024/03/27 07:19:04;;;;;;;;;;;;;;;10.99;68.56;94553.95;108522;1280;124531;-87
2024/03/27 07:21:31;;;;;;;;;;;;;;;11.02;68.64;94576.71;108567;1280;22544;-87
2024/03/27 07:23:57;;;;;;;;;;;;;;;11.04;68.92;94561.47;108608;1268;124961;-87
2024/03/27 07:26:23;;;;;;;;;;;;;;;11.05;69.05;94542.48;108714;1273;22905;-87
2024/03/27 07:28:50;;;;;;;;;;;;;;;11.09;69.37;94556.52;108703;1280;24774;-86
2024/03/27 07:31:17;;;;;;;;;;;;;;;11.13;69.78;94556.42;108513;1280;124334;-86
2024/03/27 07:33:43;;;;;;;;;;;;;;;11.16;70.01;94567.29;108636;1277;23730;-87
2024/03/27 07:36:10;;;;;;;;;;;;;;;11.18;70.22;94582.25;108583;1275;124906;-86
2024/03/27 07:38:36;;;;;;;;;;;;;;;11.23;70.19;94586.67;108778;1272;22806;-87
2024/03/27 07:41:02;;;;;;;;;;;;;;;11.26;70.30;94594.59;108735;1280;22529;-87
2024/03/27 07:43:29;;;;;;;;;;;;;;;11.28;70.46;94603.98;108538;1278;125023;-86
2024/03/27 07:45:55;;;;;;;;;;;;;;;11.31;70.57;94599.52;108698;1280;22535;-87
2024/03/27 07:48:22;;;;;;;;;;;;;;;11.34;70.69;94592.41;108647;1280;124439;-87
2024/03/27 07:50:49;;;;;;;;;;;;;;;11.38;70.86;94598.61;108636;1280;22553;-86
2024/03/27 07:53:15;;;;;;;;;;;;;;;11.42;70.84;94598.36;108522;1278;124907;-87
2024/03/27 07:55:42;;;;;;;;;;;;;;;11.47;70.77;94588.34;108616;1278;23057;-86
2024/03/27 07:58:08;;;;;;;;;;;;;;;11.50;70.71;94592.71;108614;1278;25260;-86
2024/03/27 08:00:34;;;;;;;;;;;;;;;11.53;70.88;94584.44;108524;1265;125066;-86
2024/03/27 08:03:01;;;;;;;;;;;;;;;11.57;71.12;94576.54;108710;1280;22482;-86
2024/03/27 08:05:27;;;;;;;;;;;;;;;11.61;70.89;94569.27;108619;1275;124487;-86
2024/03/27 08:07:54;;;;;;;;;;;;;;;11.64;71.79;94548.52;108807;1279;22504;-87
2024/03/27 08:10:20;;;;;;;;;;;;;;;11.70;71.40;94566.25;108798;1280;22920;-86
2024/03/27 08:12:46;;;;;;;;;;;;;;;11.76;71.51;94554.13;108610;1280;124577;-87
2024/03/27 08:15:13;;;;;;;;;;;;;;;11.83;71.32;94557.25;108637;1281;25371;-85
2024/03/27 08:17:39;;;;;;;;;;;;;;;11.89;71.29;94547.06;108521;1277;124673;-85
2024/03/27 08:20:06;;;;;;;;;;;;;;;11.94;71.63;94547.88;108621;1281;22951;-85
2024/03/27 08:22:32;;;;;;;;;;;;;;;11.99;71.84;94542.86;108625;1280;25219;-85
2024/03/27 08:24:58;;;;;;;;;;;;;;;12.03;71.31;94562.59;108512;1275;124357;-85
2024/03/27 08:27:25;;;;;;;;;;;;;;;12.08;71.03;94579.62;108652;1275;22464;-85
2024/03/27 08:29:52;;;;;;;;;;;;;;;12.11;70.79;94584.66;108627;1275;124252;-85
2024/03/27 08:32:18;;;;;;;;;;;;;;;12.16;71.80;94574.89;108610;1275;23175;-85
2024/03/27 08:34:45;;;;;;;;;;;;;;;12.23;71.57;94572.63;108680;1268;24174;-85
2024/03/27 08:37:11;;;;;;;;;;;;;;;12.27;71.59;94572.55;108507;1275;124252;-85
2024/03/27 08:39:38;;;;;;;;;;;;;;;12.34;71.21;94584.40;108686;1275;25244;-85
2024/03/27 08:42:04;;;;;;;;;;;;;;;12.38;71.72;94583.80;108599;1280;124353;-86
2024/03/27 08:44:30;;;;;;;;;;;;;;;12.41;70.67;94616.05;108705;1277;24211;-85
2024/03/27 08:46:57;;;;;;;;;;;;;;;12.38;69.82;94585.80;108709;1277;23706;-85
2024/03/27 08:49:23;;;;;;;;;;;;;;;12.41;70.56;94596.83;108517;1270;124724;-86
2024/03/27 08:51:49;;;;;;;;;;;;;;;12.45;71.54;94581.27;108633;1280;22506;-85
2024/03/27 08:54:15;;;;;;;;;;;;;;;12.53;71.31;94571.44;108606;1280;124239;-85
2024/03/27 08:56:42;;;;;;;;;;;;;;;12.59;70.98;94577.05;108643;1278;23821;-85
2024/03/27 08:59:09;;;;;;;;;;;;;;;12.57;70.43;94584.90;108530;1280;125628;-85
2024/03/27 09:01:36;;;;;;;;;;;;;;;12.57;71.33;94568.11;108714;1280;22541;-85
2024/03/27 09:04:02;;;;;;;;;;;;;;;12.59;71.17;94579.24;108651;1278;23279;-85
2024/03/27 09:06:28;;;;;;;;;;;;;;;12.62;70.27;94580.73;108524;1280;124399;-86
2024/03/27 09:08:55;;;;;;;;;;;;;;;12.65;71.05;94572.44;108648;1280;22521;-85
2024/03/27 09:11:21;;;;;;;;;;;;;;;12.68;70.09;94582.59;108562;1279;124418;-85
2024/03/27 09:13:47;;;;;;;;;;;;;;;12.71;70.13;94567.06;108718;1279;24181;-85
2024/03/27 09:16:13;;;;;;;;;;;;;;;12.73;70.23;94575.27;108769;1280;22597;-85
2024/03/27 09:18:40;;;;;;;;;;;;;;;12.75;70.30;94584.59;108597;1279;124571;-86
2024/03/27 09:21:06;;;;;;;;;;;;;;;12.76;69.52;94606.33;108819;1272;22520;-85
2024/03/27 09:23:32;;;;;;;;;;;;;;;12.72;69.48;94595.80;108720;1280;124373;-85
2024/03/27 09:25:59;;;;;;;;;;;;;;;12.72;69.70;94596.70;108618;1278;22507;-85
2024/03/27 09:28:27;;;;;;;;;;;;;;;12.74;69.76;94605.63;108687;1280;22562;-85
2024/03/27 09:30:54;;;;;;;;;;;;;;;12.80;70.34;94590.91;108654;1280;124760;-86
2024/03/27 09:33:21;;;;;;;;;;;;;;;12.85;68.94;94603.41;110050;1280;23567;-86
2024/03/27 09:35:48;;;;;;;;;;;;;;;12.83;69.44;94600.37;109971;1272;124567;-86
2024/03/27 09:38:15;;;;;;;;;;;;;;;12.84;70.30;94596.70;109984;1275;22379;-86
2024/03/27 09:40:45;;;;;;;;;;;;;;;12.93;70.66;94609.81;109838;1273;192063;-86
2024/03/27 09:43:12;;;;;;;;;;;;;;;13.02;68.89;94610.15;109906;1280;124579;-86
2024/03/27 09:45:39;;;;;;;;;;;;;;;13.05;69.84;94622.14;109911;1274;22511;-85
2024/03/27 09:48:06;;;;;;;;;;;;;;;13.10;69.00;94625.95;108536;1280;124379;-85
2024/03/27 09:50:33;;;;;;;;;;;;;;;13.09;68.38;94619.95;108705;1280;23056;-85
2024/03/27 09:52:59;;;;;;;;;;;;;;;13.08;68.47;94626.60;108693;1276;22544;-85
2024/03/27 09:55:30;;;;;;;;;;;;;;;13.11;68.66;94632.02;108598;1280;124306;-85
2024/03/27 09:57:58;;;;;;;;;;;;;;;13.13;68.26;94627.14;108678;1280;22581;-85
2024/03/27 10:00:25;;;;;;;;;;;;;;;13.17;68.96;94614.53;108546;1275;124786;-85
2024/03/27 10:02:52;;;;;;;;;;;;;;;13.21;68.66;94609.45;108629;1280;23340;-85
2024/03/27 10:05:20;;;;;;;;;;;;;;;13.24;68.31;94614.02;108549;1279;124867;-85
2024/03/27 10:07:47;;;;;;;;;;;;;;;13.28;68.58;94618.98;108805;1273;22594;-85
2024/03/27 10:10:13;;;;;;;;;;;;;;;13.32;67.92;94626.59;108649;1280;22475;-85
2024/03/27 10:12:39;;;;;;;;;;;;;;;13.34;68.23;94626.83;108595;1278;124225;-85
2024/03/27 10:15:07;;;;;;;;;;;;;;;13.38;68.20;94616.50;108604;1277;24697;-86
2024/03/27 10:17:33;;;;;;;;;;;;;;;13.39;67.60;94609.11;108515;1265;124414;-85
2024/03/27 10:20:00;;;;;;;;;;;;;;;13.43;68.63;94601.06;108722;1278;22528;-85
2024/03/27 10:22:29;;;;;;;;;;;;;;;13.48;67.93;94613.02;108593;1275;23763;-85
2024/03/27 10:24:56;;;;;;;;;;;;;;;13.54;68.91;94593.84;108522;1279;124503;-85
2024/03/27 10:27:22;;;;;;;;;;;;;;;13.59;68.49;94602.71;108746;1278;22608;-86
2024/03/27 10:29:49;;;;;;;;;;;;;;;13.67;67.77;94603.17;108544;1280;124535;-85
2024/03/27 10:32:15;;;;;;;;;;;;;;;13.75;68.38;94615.95;108657;1278;22539;-85
2024/03/27 10:34:42;;;;;;;;;;;;;;;13.80;67.09;94626.08;108636;1278;22976;-85
2024/03/27 10:37:10;;;;;;;;;;;;;;;13.82;67.88;94615.91;108559;1280;124709;-86
2024/03/27 10:39:47;;;;;;;;;;;;;;;13.87;67.33;94596.98;108639;1280;22568;-85
2024/03/27 10:42:21;;;;;;;;;;;;;;;13.91;67.51;94595.09;108551;1280;124364;-86
2024/03/27 10:44:48;;;;;;;;;;;;;;;13.96;66.39;94608.77;108653;1278;23637;-86
2024/03/27 10:47:16;;;;;;;;;;;;;;;13.97;65.75;94614.83;108549;1275;124394;-86
2024/03/27 10:49:43;;;;;;;;;;;;;;;13.96;66.21;94610.01;108625;1280;22534;-86
2024/03/27 10:52:09;;;;;;;;;;;;;;;14.00;67.13;94603.16;108573;1278;23311;-86
2024/03/27 10:54:36;;;;;;;;;;;;;;;14.03;67.10;94592.49;108515;1275;124351;-83
2024/03/27 10:57:03;;;;;;;;;;;;;;;14.06;67.19;94583.91;108597;1280;22586;-83
2024/03/27 10:59:30;;;;;;;;;;;;;;;14.11;67.49;94597.89;108586;1280;124483;-84
2024/03/27 11:02:02;;;;;;;;;;;;;;;14.16;67.64;94594.03;108644;1275;22527;-83
2024/03/27 11:04:31;;;;;;;;;;;;;;;14.24;67.82;94592.23;108593;1281;22611;-83
2024/03/27 11:06:58;;;;;;;;;;;;;;;14.28;65.33;94600.24;108578;1280;124957;-83
2024/03/27 11:09:24;;;;;;;;;;;;;;;14.26;66.19;94584.04;108629;1275;22556;-83
2024/03/27 11:11:51;;;;;;;;;;;;;;;14.35;66.69;94573.36;108640;1272;124189;-83
2024/03/27 11:14:18;;;;;;;;;;;;;;;14.46;67.42;94565.05;108776;1278;22603;-83
2024/03/27 11:16:56;;;;;;;;;;;;;;;14.56;66.56;94566.80;108726;1280;24370;-83
2024/03/27 11:19:32;;;;;;;;;;;;;;;14.62;65.38;94555.02;108559;1275;124293;-83
2024/03/27 11:22:02;;;;;;;;;;;;;;;14.66;65.91;94566.11;108704;1277;22583;-84
2024/03/27 11:24:28;;;;;;;;;;;;;;;14.75;67.10;94560.98;108655;1280;124189;-83
2024/03/27 11:26:59;;;;;;;;;;;;;;;14.82;65.77;94547.39;108782;1272;22653;-86
2024/03/27 11:29:26;;;;;;;;;;;;;;;14.83;65.63;94548.02;108672;1277;124412;-86
2024/03/27 11:31:52;;;;;;;;;;;;;;;14.90;65.40;94539.73;108618;1278;22566;-87
2024/03/27 11:34:19;;;;;;;;;;;;;;;14.98;66.49;94540.35;108607;1279;23230;-86
2024/03/27 11:36:46;;;;;;;;;;;;;;;15.08;66.96;94559.49;108596;1272;124564;-86
2024/03/27 11:39:13;;;;;;;;;;;;;;;15.16;65.63;94564.73;108565;1277;22641;-87
2024/03/27 11:41:40;;;;;;;;;;;;;;;15.18;64.98;94566.94;108525;1281;124881;-87
2024/03/27 11:44:06;;;;;;;;;;;;;;;15.18;64.18;94572.11;108577;1280;22532;-87
2024/03/27 11:46:33;;;;;;;;;;;;;;;15.21;64.37;94576.31;108609;1275;24613;-86
2024/03/27 11:49:00;;;;;;;;;;;;;;;15.18;61.93;94565.16;108543;1278;124236;-83
2024/03/27 11:51:26;;;;;;;;;;;;;;;15.15;62.98;94560.75;108609;1281;22558;-83
2024/03/27 11:53:52;;;;;;;;;;;;;;;15.17;63.87;94563.11;108626;1280;124755;-83
2024/03/27 11:56:19;;;;;;;;;;;;;;;15.23;64.70;94557.64;108610;1274;22532;-84
2024/03/27 11:58:45;;;;;;;;;;;;;;;15.28;64.18;94562.79;108627;1273;22549;-84
2024/03/27 12:01:11;;;;;;;;;;;;;;;15.33;64.08;94565.80;108698;1273;124229;-84
2024/03/27 12:03:38;;;;;;;;;;;;;;;15.43;63.29;94566.73;108674;1276;23042;-83
2024/03/27 12:06:04;;;;;;;;;;;;;;;15.48;62.86;94554.26;108539;1279;124275;-83
2024/03/27 12:08:35;;;;;;;;;;;;;;;15.54;62.66;94554.52;108738;1280;22554;-84
2024/03/27 12:11:01;;;;;;;;;;;;;;;15.60;62.26;94561.31;108708;1277;22463;-83
2024/03/27 12:13:27;;;;;;;;;;;;;;;15.62;63.37;94548.52;108497;1281;124047;-84
2024/03/27 12:15:53;;;;;;;;;;;;;;;15.72;63.00;94547.13;108627;1280;22543;-83
2024/03/27 12:18:20;;;;;;;;;;;;;;;15.77;62.59;94551.38;108496;1280;124511;-84
2024/03/27 12:20:46;;;;;;;;;;;;;;;15.78;61.96;94544.26;108642;1280;22511;-84
2024/03/27 12:23:14;;;;;;;;;;;;;;;15.78;61.91;94546.40;108496;1275;124410;-84
2024/03/27 12:25:44;;;;;;;;;;;;;;;15.78;61.69;94553.89;108463;1274;24830;-84
2024/03/27 12:28:10;;;;;;;;;;;;;;;15.72;61.81;94546.75;110059;1269;22410;-84
2024/03/27 12:30:37;;;;;;;;;;;;;;;15.69;61.71;94509.58;109391;1273;124478;-84
2024/03/27 12:33:04;;;;;;;;;;;;;;;15.69;62.29;94502.66;108582;1280;22578;-83